Time;durP1;ratioP1;P1;durP2;ratioP2;P2;SDS_P1;SDS_P2;PMS_P1;PMS_P2;Temp;Humidity;BMP_temperature;BMP_pressure;BME280_temperature;BME280_humidity;BME280_pressure;Samples;Min_cycle;Max_cycle;Signal;HPM_P1;HPM_P2
2024/02/10 00:00:58;;;;;;;10.77;4.30;;;;;;;10.35;100.00;98436.44;5115164;28;20050;-66
2024/02/10 00:03:46;;;;;;;9.57;3.92;;;;;;;10.34;100.00;98432.09;5101137;27;20042;-65
2024/02/10 00:06:36;;;;;;;8.95;3.75;;;;;;;10.33;100.00;98427.78;5116401;27;20415;-66
2024/02/10 00:09:24;;;;;;;9.02;3.70;;;;;;;10.33;100.00;98423.16;5098118;28;20467;-66
2024/02/10 00:12:13;;;;;;;8.98;3.83;;;;;;;10.32;100.00;98418.00;5112895;28;20499;-67
2024/02/10 00:15:05;;;;;;;9.15;3.65;;;;;;;10.32;100.00;98421.56;5097298;28;20055;-66
2024/02/10 00:17:53;;;;;;;11.63;3.63;;;;;;;10.32;100.00;98427.00;5099493;28;20051;-67
2024/02/10 00:20:42;;;;;;;7.70;3.92;;;;;;;10.33;100.00;98430.50;5086733;28;20043;-66
2024/02/10 00:23:30;;;;;;;8.90;4.13;;;;;;;10.35;100.00;98431.00;5098824;28;20102;-67
2024/02/10 00:26:22;;;;;;;10.68;3.55;;;;;;;10.36;100.00;98438.03;5091877;28;20105;-67
2024/02/10 00:29:12;;;;;;;8.93;3.67;;;;;;;10.35;100.00;98436.44;5093188;28;20044;-65
2024/02/10 00:32:00;;;;;;;8.70;3.70;;;;;;;10.34;100.00;98434.81;5078778;28;20051;-66
2024/02/10 00:34:49;;;;;;;9.05;3.80;;;;;;;10.35;100.00;98436.44;5090186;28;20039;-66
2024/02/10 00:37:37;;;;;;;8.88;4.13;;;;;;;10.36;100.00;98438.03;5099505;28;20074;-67
2024/02/10 00:40:25;;;;;;;7.55;3.85;;;;;;;10.37;100.00;98434.19;5084076;28;20479;-67
2024/02/10 00:43:13;;;;;;;8.27;3.63;;;;;;;10.35;100.00;98439.16;5097341;28;20054;-66
2024/02/10 00:46:06;;;;;;;11.02;3.70;;;;;;;10.36;100.00;98438.03;5088895;28;20040;-66
2024/02/10 00:48:54;;;;;;;10.98;3.97;;;;;;;10.37;100.00;98439.63;5113454;28;20040;-67
2024/02/10 00:51:42;;;;;;;8.63;3.55;;;;;;;10.34;100.00;98430.19;5084464;28;20087;-66
2024/02/10 00:54:30;;;;;;;11.43;4.40;;;;;;;10.34;100.00;98432.09;5083405;28;20056;-66
2024/02/10 00:57:18;;;;;;;8.60;3.88;;;;;;;10.33;100.00;98430.50;5064189;28;20079;-67
2024/02/10 01:00:11;;;;;;;8.02;3.80;;;;;;;10.33;100.00;98433.25;5078733;28;20522;-66
2024/02/10 01:03:00;;;;;;;6.88;3.33;;;;;;;10.32;100.00;98431.63;5077317;28;20040;-66
2024/02/10 01:05:50;;;;;;;9.00;3.70;;;;;;;10.32;100.00;98434.34;5090654;27;20043;-66
2024/02/10 01:08:40;;;;;;;8.43;3.70;;;;;;;10.32;100.00;98431.63;5087444;28;20412;-67
2024/02/10 01:11:32;;;;;;;8.13;3.60;;;;;;;10.31;100.00;98435.47;5112391;28;20453;-65
2024/02/10 01:14:20;;;;;;;8.15;3.85;;;;;;;10.30;100.00;98433.91;5112601;28;20040;-66
2024/02/10 01:17:11;;;;;;;13.15;4.05;;;;;;;10.30;100.00;98439.34;5110288;27;20059;-67
2024/02/10 01:19:59;;;;;;;11.80;4.07;;;;;;;10.31;100.00;98435.47;5097985;28;20082;-67
2024/02/10 01:22:48;;;;;;;8.02;3.70;;;;;;;10.30;100.00;98433.91;5081913;28;20044;-67
2024/02/10 01:25:36;;;;;;;8.75;3.45;;;;;;;10.29;100.00;98433.06;5095920;28;20048;-67
2024/02/10 01:28:24;;;;;;;10.65;3.83;;;;;;;10.28;100.00;98436.94;5092744;28;20507;-67
2024/02/10 01:31:13;;;;;;;10.18;3.72;;;;;;;10.28;100.00;98439.66;5112393;28;20043;-68
2024/02/10 01:34:02;;;;;;;12.60;4.18;;;;;;;10.28;100.00;98441.56;5077175;28;20511;-67
2024/02/10 01:36:50;;;;;;;9.85;4.07;;;;;;;10.27;100.00;98439.94;5096161;27;20120;-67
2024/02/10 01:39:38;;;;;;;8.60;3.58;;;;;;;10.27;100.00;98445.38;5077313;28;20119;-66
2024/02/10 01:42:37;;;;;;;9.65;4.25;;;;;;;10.24;100.00;98446.81;5064164;28;20052;-65
2024/02/10 01:45:27;;;;;;;7.05;3.78;;;;;;;10.23;100.00;98442.53;5091174;28;20075;-66
2024/02/10 01:48:15;;;;;;;8.48;3.97;;;;;;;10.23;100.00;98439.81;5107339;28;20392;-67
2024/02/10 01:51:03;;;;;;;9.35;4.22;;;;;;;10.23;100.00;98434.34;5063272;28;20051;-67
2024/02/10 01:53:52;;;;;;;8.00;3.92;;;;;;;10.23;100.00;98437.88;5101571;28;20036;-66
2024/02/10 01:56:41;;;;;;;7.75;3.67;;;;;;;10.23;100.00;98443.31;5097905;28;20173;-67
2024/02/10 01:59:31;;;;;;;8.93;3.80;;;;;;;10.24;100.00;98446.81;5083303;28;20046;-65
2024/02/10 02:02:19;;;;;;;9.48;4.07;;;;;;;10.24;100.00;98442.19;5083474;28;20067;-66
2024/02/10 02:05:07;;;;;;;8.13;4.22;;;;;;;10.24;100.00;98441.38;5074393;28;20186;-67
2024/02/10 02:07:56;;;;;;;7.97;3.88;;;;;;;10.24;100.00;98441.38;5091823;28;20070;-67
2024/02/10 02:10:44;;;;;;;9.52;3.95;;;;;;;10.23;100.00;98446.03;5077493;28;20685;-66
2024/02/10 02:13:32;;;;;;;7.43;3.70;;;;;;;10.21;100.00;98448.28;5086277;28;20055;-66
2024/02/10 02:16:20;;;;;;;8.88;4.07;;;;;;;10.20;100.00;98441.25;5107944;28;20412;-66
2024/02/10 02:19:11;;;;;;;7.95;3.92;;;;;;;10.20;100.00;98452.13;5097417;28;20118;-64
2024/02/10 02:22:02;;;;;;;10.02;4.38;;;;;;;10.19;100.00;98439.63;5109473;28;20432;-63
2024/02/10 02:24:50;;;;;;;10.55;4.10;;;;;;;10.19;100.00;98445.06;5112623;28;20070;-64
2024/02/10 02:27:38;;;;;;;10.57;4.07;;;;;;;10.19;100.00;98444.28;5106507;28;20071;-66
2024/02/10 02:30:27;;;;;;;9.70;4.13;;;;;;;10.19;100.00;98442.34;5116294;28;20092;-66
2024/02/10 02:33:15;;;;;;;8.55;4.10;;;;;;;10.18;100.00;98435.31;5105163;28;20433;-68
2024/02/10 02:36:03;;;;;;;8.30;3.70;;;;;;;10.19;100.00;98438.84;5098278;28;20208;-66
2024/02/10 02:38:51;;;;;;;10.23;4.10;;;;;;;10.18;100.00;98438.06;5097625;28;20063;-66
2024/02/10 02:41:39;;;;;;;8.63;4.00;;;;;;;10.19;100.00;98431.47;5113137;28;20058;-66
2024/02/10 02:44:27;;;;;;;8.25;3.80;;;;;;;10.18;100.00;98431.81;5115519;28;20156;-66
2024/02/10 02:47:15;;;;;;;9.88;4.13;;;;;;;10.17;100.00;98431.03;5096525;28;20054;-67
2024/02/10 02:50:08;;;;;;;8.70;4.03;;;;;;;10.17;100.00;98420.13;5110435;28;20100;-66
2024/02/10 02:53:02;;;;;;;9.43;4.53;;;;;;;10.18;100.00;98421.72;5089427;28;20169;-66
2024/02/10 02:55:50;;;;;;;9.30;3.95;;;;;;;10.16;100.00;98415.81;5101685;28;20363;-66
2024/02/10 02:58:38;;;;;;;8.20;4.50;;;;;;;10.14;100.00;98415.31;5089739;28;20043;-66
2024/02/10 03:01:26;;;;;;;12.13;5.88;;;;;;;10.14;100.00;98414.53;5089680;28;20112;-64
2024/02/10 03:04:15;;;;;;;10.35;5.60;;;;;;;10.16;100.00;98409.56;5099379;28;20055;-67
2024/02/10 03:07:03;;;;;;;9.02;4.30;;;;;;;10.16;100.00;98410.34;5099995;28;20043;-68
2024/02/10 03:09:51;;;;;;;10.05;4.28;;;;;;;10.15;100.00;98416.94;5111153;28;20051;-66
2024/02/10 03:12:41;;;;;;;8.90;4.22;;;;;;;10.14;100.00;98414.53;5099872;28;20407;-66
2024/02/10 03:15:30;;;;;;;11.75;4.55;;;;;;;10.14;100.00;98415.31;5085930;28;20109;-67
2024/02/10 03:18:18;;;;;;;11.65;4.20;;;;;;;10.13;100.00;98412.94;5098244;28;20126;-66
2024/02/10 03:21:09;;;;;;;9.70;3.85;;;;;;;10.11;100.00;98407.81;5094407;28;20423;-65
2024/02/10 03:24:03;;;;;;;10.02;4.25;;;;;;;10.10;100.00;98414.38;5098945;28;20040;-66
2024/02/10 03:26:51;;;;;;;8.52;3.70;;;;;;;10.07;100.00;98425.91;5114553;28;20044;-66
2024/02/10 03:29:39;;;;;;;7.85;3.33;;;;;;;10.05;100.00;98419.19;5097712;28;20039;-64
2024/02/10 03:32:32;;;;;;;8.15;3.75;;;;;;;10.02;100.00;98412.47;5115536;28;20126;-66
2024/02/10 03:35:21;;;;;;;7.40;3.97;;;;;;;10.00;100.00;98420.16;5099180;28;20079;-66
2024/02/10 03:38:09;;;;;;;7.10;3.72;;;;;;;10.01;100.00;98419.03;5114973;28;20048;-66
2024/02/10 03:40:57;;;;;;;8.05;4.05;;;;;;;10.00;100.00;98414.72;5070716;28;20108;-67
2024/02/10 03:43:45;;;;;;;6.32;3.83;;;;;;;10.00;100.00;98410.06;5104589;27;20131;-65
2024/02/10 03:46:33;;;;;;;7.72;3.88;;;;;;;10.01;100.00;98408.16;5134635;27;20051;-67
2024/02/10 03:49:21;;;;;;;9.75;4.00;;;;;;;10.01;100.00;98411.69;5123325;27;20412;-66
2024/02/10 03:52:09;;;;;;;8.57;3.72;;;;;;;10.01;100.00;98406.25;5076882;28;20051;-66
2024/02/10 03:54:58;;;;;;;8.52;3.80;;;;;;;10.03;100.00;98417.59;5093590;28;20496;-66
2024/02/10 03:57:46;;;;;;;10.27;3.92;;;;;;;10.02;100.00;98418.72;5093835;28;20093;-66
2024/02/10 04:00:36;;;;;;;8.35;3.92;;;;;;;10.04;100.00;98426.56;5106283;28;20120;-67
2024/02/10 04:03:27;;;;;;;7.05;3.83;;;;;;;10.03;100.00;98422.25;5108225;27;20048;-67
2024/02/10 04:06:16;;;;;;;8.30;3.83;;;;;;;10.02;100.00;98410.53;5065942;28;20044;-66
2024/02/10 04:09:07;;;;;;;9.48;4.00;;;;;;;10.02;100.00;98417.91;5092567;28;20141;-65
2024/02/10 04:11:57;;;;;;;6.68;3.72;;;;;;;10.03;100.00;98414.09;5100201;27;20411;-66
2024/02/10 04:14:45;;;;;;;7.53;3.80;;;;;;;10.01;100.00;98417.13;5113552;28;20040;-65
2024/02/10 04:17:33;;;;;;;5.95;3.90;;;;;;;10.02;100.00;98412.47;5098688;28;20063;-65
2024/02/10 04:20:23;;;;;;;8.55;4.10;;;;;;;10.01;100.00;98410.88;5098511;28;20054;-66
2024/02/10 04:23:12;;;;;;;7.38;3.67;;;;;;;9.99;100.00;98413.13;5097278;28;20079;-66
2024/02/10 04:26:01;;;;;;;8.50;3.72;;;;;;;9.99;100.00;98413.91;5113684;28;20388;-66
2024/02/10 04:28:49;;;;;;;7.32;3.65;;;;;;;9.99;100.00;98413.13;5098191;28;20130;-66
2024/02/10 04:31:39;;;;;;;7.22;3.70;;;;;;;9.98;100.00;98419.66;5093667;28;20043;-66
2024/02/10 04:34:30;;;;;;;7.43;3.80;;;;;;;9.97;100.00;98431.69;5111281;28;20043;-67
2024/02/10 04:37:19;;;;;;;9.82;4.05;;;;;;;9.95;100.00;98433.94;5113956;28;20566;-66
2024/02/10 04:40:08;;;;;;;9.15;4.25;;;;;;;9.92;100.00;98431.84;5099886;28;20118;-67
2024/02/10 04:42:56;;;;;;;10.05;4.10;;;;;;;9.94;100.00;98426.91;5111835;27;20039;-65
2024/02/10 04:45:48;;;;;;;7.45;3.88;;;;;;;9.95;100.00;98421.13;5063786;28;20056;-66
2024/02/10 04:48:36;;;;;;;8.20;3.58;;;;;;;9.98;100.00;98427.84;5065140;28;20051;-66
2024/02/10 04:51:26;;;;;;;7.30;3.58;;;;;;;9.98;100.00;98433.28;5093644;28;20051;-65
2024/02/10 04:54:15;;;;;;;7.00;3.55;;;;;;;10.00;100.00;98425.59;5072997;27;20120;-66
2024/02/10 04:57:04;;;;;;;11.18;4.38;;;;;;;10.01;100.00;98424.50;5098897;28;20089;-66
2024/02/10 04:59:52;;;;;;;8.40;3.80;;;;;;;10.00;100.00;98422.88;5096865;28;20043;-66
2024/02/10 05:02:40;;;;;;;9.23;3.83;;;;;;;9.99;100.00;98430.25;5097027;28;20039;-65
2024/02/10 05:05:29;;;;;;;8.25;3.72;;;;;;;9.99;100.00;98429.44;5098071;28;20126;-65
2024/02/10 05:08:17;;;;;;;8.82;3.70;;;;;;;9.96;100.00;98425.44;5110841;28;20055;-65
2024/02/10 05:11:05;;;;;;;8.23;3.83;;;;;;;9.96;100.00;98430.91;5112785;28;20079;-66
2024/02/10 05:13:53;;;;;;;8.43;4.10;;;;;;;9.98;100.00;98422.41;5097110;28;20411;-66
2024/02/10 05:16:41;;;;;;;7.88;3.50;;;;;;;10.01;100.00;98435.38;5079602;28;20070;-65
2024/02/10 05:19:33;;;;;;;10.35;4.03;;;;;;;10.02;100.00;98431.50;5076956;28;20043;-65
2024/02/10 05:22:22;;;;;;;7.10;3.60;;;;;;;10.01;100.00;98441.59;5091951;28;20040;-65
2024/02/10 05:25:11;;;;;;;8.02;3.80;;;;;;;10.00;100.00;98440.00;5080014;28;20039;-66
2024/02/10 05:28:00;;;;;;;7.00;3.80;;;;;;;10.02;100.00;98445.13;5111620;28;20035;-66
2024/02/10 05:30:50;;;;;;;6.38;3.60;;;;;;;10.00;100.00;98439.19;5111695;27;20074;-65
2024/02/10 05:33:43;;;;;;;9.32;3.88;;;;;;;10.00;100.00;98439.19;5132902;27;20471;-65
2024/02/10 05:36:37;;;;;;;7.50;3.58;;;;;;;9.96;100.00;98435.53;5121971;27;20044;-66
2024/02/10 05:39:25;;;;;;;8.55;4.00;;;;;;;9.95;100.00;98439.38;5099141;28;20058;-65
2024/02/10 05:42:13;;;;;;;6.82;3.50;;;;;;;9.98;100.00;98449.59;5113637;28;20131;-66
2024/02/10 05:45:06;;;;;;;6.75;3.78;;;;;;;9.97;100.00;98448.00;5113610;28;20055;-65
2024/02/10 05:47:54;;;;;;;6.85;3.72;;;;;;;9.96;100.00;98444.50;5096438;28;20049;-65
2024/02/10 05:50:42;;;;;;;6.72;4.00;;;;;;;9.96;100.00;98451.88;5107602;28;20137;-64
2024/02/10 05:53:30;;;;;;;11.20;3.70;;;;;;;9.94;100.00;98449.44;5076587;28;20048;-65
2024/02/10 05:56:18;;;;;;;9.88;4.35;;;;;;;9.93;100.00;98450.59;5091943;28;20052;-65
2024/02/10 05:59:06;;;;;;;6.60;3.50;;;;;;;9.95;100.00;98452.97;5112371;28;20495;-66
2024/02/10 06:01:54;;;;;;;9.32;3.92;;;;;;;9.95;100.00;98451.03;5098020;28;20044;-65
2024/02/10 06:04:42;;;;;;;7.88;3.75;;;;;;;9.97;100.00;98456.16;5097835;28;20039;-65
2024/02/10 06:07:35;;;;;;;5.90;3.40;;;;;;;9.97;100.00;98454.25;5110652;28;20035;-66
2024/02/10 06:10:23;;;;;;;7.95;3.72;;;;;;;9.96;100.00;98463.53;5078468;28;20059;-65
2024/02/10 06:13:14;;;;;;;9.20;4.25;;;;;;;9.97;100.00;98459.69;5092202;28;20123;-65
2024/02/10 06:16:05;;;;;;;9.52;3.90;;;;;;;9.96;100.00;98462.75;5091372;28;20048;-65
2024/02/10 06:18:54;;;;;;;7.68;3.50;;;;;;;9.96;100.00;98462.75;5101917;28;20448;-67
2024/02/10 06:21:45;;;;;;;8.43;3.92;;;;;;;9.96;100.00;98468.19;5099596;28;20051;-66
2024/02/10 06:24:35;;;;;;;8.02;4.10;;;;;;;9.97;100.00;98473.28;5129277;28;20071;-64
2024/02/10 06:27:23;;;;;;;11.57;4.22;;;;;;;9.95;100.00;98472.00;5113855;28;20052;-67
2024/02/10 06:30:16;;;;;;;8.63;4.00;;;;;;;9.93;100.00;98479.69;5117862;27;20463;-67
2024/02/10 06:33:06;;;;;;;9.90;4.07;;;;;;;9.89;100.00;98479.53;5099709;28;20087;-61
2024/02/10 06:35:57;;;;;;;8.45;3.95;;;;;;;9.88;100.00;98494.25;5113237;28;20035;-66
2024/02/10 06:38:45;;;;;;;9.65;4.22;;;;;;;9.89;100.00;98497.78;5100756;28;20531;-67
2024/02/10 06:41:34;;;;;;;6.47;3.58;;;;;;;9.90;100.00;98494.72;5087698;28;20500;-66
2024/02/10 06:44:22;;;;;;;8.30;3.75;;;;;;;9.91;100.00;98498.25;5114257;28;20052;-66
2024/02/10 06:47:10;;;;;;;8.32;3.85;;;;;;;9.92;100.00;98505.31;5113452;28;20480;-66
2024/02/10 06:49:59;;;;;;;6.97;3.60;;;;;;;9.94;100.00;98511.22;5072087;27;20044;-66
2024/02/10 06:52:47;;;;;;;7.75;3.53;;;;;;;9.95;100.00;98518.25;5135869;27;20455;-66
2024/02/10 06:55:36;;;;;;;8.65;3.50;;;;;;;9.92;100.00;98508.81;5120539;27;20392;-66
2024/02/10 06:58:26;;;;;;;7.82;3.55;;;;;;;9.93;100.00;98510.44;5107027;27;20039;-66
2024/02/10 07:01:17;;;;;;;6.40;3.30;;;;;;;9.93;100.00;98512.31;5106051;27;20054;-65
2024/02/10 07:04:05;;;;;;;7.03;3.42;;;;;;;9.94;100.00;98516.66;5135867;27;20051;-67
2024/02/10 07:06:54;;;;;;;7.28;3.38;;;;;;;9.93;100.00;98524.03;5115064;28;20407;-65
2024/02/10 07:09:42;;;;;;;8.50;3.42;;;;;;;9.93;100.00;98524.03;5115961;28;20044;-66
2024/02/10 07:12:31;;;;;;;7.90;3.45;;;;;;;9.93;100.00;98531.38;5111862;27;20050;-64
2024/02/10 07:15:25;;;;;;;8.80;3.58;;;;;;;9.91;100.00;98525.44;5120253;27;20422;-65
2024/02/10 07:18:15;;;;;;;7.18;3.60;;;;;;;9.90;100.00;98530.09;5104415;28;20553;-66
2024/02/10 07:21:03;;;;;;;11.35;3.60;;;;;;;9.88;100.00;98531.53;5113397;27;20047;-66
2024/02/10 07:23:52;;;;;;;10.93;3.78;;;;;;;9.87;100.00;98524.50;5084644;28;20050;-65
2024/02/10 07:26:42;;;;;;;6.65;3.55;;;;;;;9.82;100.00;98531.69;5100830;28;20096;-66
2024/02/10 07:29:34;;;;;;;8.02;3.85;;;;;;;9.82;100.00;98528.19;5085886;28;20039;-65
2024/02/10 07:32:22;;;;;;;5.10;3.35;;;;;;;9.82;100.00;98534.41;5100058;27;20046;-65
2024/02/10 07:35:10;;;;;;;11.73;3.97;;;;;;;9.85;100.00;98534.91;5114426;28;20075;-65
2024/02/10 07:37:58;;;;;;;9.05;3.88;;;;;;;9.82;100.00;98533.63;5114581;28;20052;-66
2024/02/10 07:40:46;;;;;;;7.20;3.60;;;;;;;9.80;100.00;98535.84;5099460;28;20043;-65
2024/02/10 07:43:34;;;;;;;7.03;3.70;;;;;;;9.80;100.00;98539.38;5112810;27;20066;-66
2024/02/10 07:46:22;;;;;;;5.55;3.55;;;;;;;9.79;100.00;98545.16;5129847;27;20055;-66
2024/02/10 07:49:10;;;;;;;8.02;3.90;;;;;;;9.80;100.00;98550.25;5102596;27;20043;-67
2024/02/10 07:51:58;;;;;;;6.75;3.58;;;;;;;9.81;100.00;98549.16;5084636;28;20039;-65
2024/02/10 07:54:47;;;;;;;8.30;3.80;;;;;;;9.81;100.00;98560.03;5103678;27;20043;-66
2024/02/10 07:57:36;;;;;;;6.28;3.83;;;;;;;9.82;100.00;98560.81;5098446;28;20138;-64
2024/02/10 08:00:24;;;;;;;10.43;3.95;;;;;;;9.79;100.00;98562.25;5102688;28;20126;-65
2024/02/10 08:03:12;;;;;;;6.28;3.40;;;;;;;9.84;100.00;98569.47;5111930;27;20142;-66
2024/02/10 08:06:00;;;;;;;7.50;3.90;;;;;;;9.84;100.00;98557.75;5116408;27;20054;-66
2024/02/10 08:08:48;;;;;;;8.80;3.75;;;;;;;9.85;100.00;98564.81;5103129;27;20040;-66
2024/02/10 08:11:39;;;;;;;7.35;3.55;;;;;;;9.86;100.00;98569.13;5079217;28;20177;-65
2024/02/10 08:14:27;;;;;;;5.40;3.50;;;;;;;9.85;100.00;98576.50;5097332;27;20059;-66
2024/02/10 08:17:16;;;;;;;8.63;3.80;;;;;;;9.84;100.00;98566.75;5126445;27;20109;-64
2024/02/10 08:20:04;;;;;;;6.90;3.35;;;;;;;9.85;100.00;98567.53;5085283;28;20048;-66
2024/02/10 08:22:53;;;;;;;8.45;3.90;;;;;;;9.86;100.00;98571.84;5114064;28;20071;-66
2024/02/10 08:25:43;;;;;;;6.50;3.28;;;;;;;9.86;100.00;98569.13;5120638;27;20114;-66
2024/02/10 08:28:31;;;;;;;6.45;3.55;;;;;;;9.87;100.00;98566.09;5105391;27;20114;-66
2024/02/10 08:31:19;;;;;;;5.70;3.42;;;;;;;9.85;100.00;98575.69;5115423;27;20048;-66
2024/02/10 08:34:08;;;;;;;7.82;3.92;;;;;;;9.86;100.00;98569.13;5099326;28;20044;-66
2024/02/10 08:36:57;;;;;;;8.50;3.72;;;;;;;9.87;100.00;98568.81;5106883;28;20047;-65
2024/02/10 08:39:45;;;;;;;6.68;3.55;;;;;;;9.91;100.00;98571.69;5079098;28;20044;-66
2024/02/10 08:42:35;;;;;;;7.20;3.70;;;;;;;9.93;100.00;98577.59;5092916;28;20129;-65
2024/02/10 08:45:23;;;;;;;6.57;3.72;;;;;;;9.93;100.00;98575.72;5092498;28;20145;-65
2024/02/10 08:48:11;;;;;;;7.32;3.70;;;;;;;9.95;100.00;98584.34;5112170;28;20047;-66
2024/02/10 08:51:00;;;;;;;9.60;4.15;;;;;;;9.96;100.00;98579.72;5084047;28;20415;-66
2024/02/10 08:53:49;;;;;;;7.72;3.80;;;;;;;9.95;100.00;98586.25;5099371;28;20143;-67
2024/02/10 08:56:41;;;;;;;6.47;3.65;;;;;;;9.95;100.00;98583.53;5083605;28;20054;-64
2024/02/10 08:59:33;;;;;;;8.35;3.78;;;;;;;9.98;100.00;98585.63;5098165;28;20522;-66
2024/02/10 09:02:22;;;;;;;9.18;4.35;;;;;;;10.00;100.00;98586.09;5099394;28;20415;-66
2024/02/10 09:05:11;;;;;;;8.45;3.78;;;;;;;10.02;100.00;98583.88;5071124;28;20442;-66
2024/02/10 09:07:59;;;;;;;6.75;3.38;;;;;;;10.01;100.00;98585.78;5078307;27;20069;-66
2024/02/10 09:10:47;;;;;;;8.38;3.65;;;;;;;9.99;100.00;98589.94;5063998;28;20492;-64
2024/02/10 09:13:35;;;;;;;9.90;3.80;;;;;;;9.99;100.00;98598.13;5076653;28;20046;-65
2024/02/10 09:16:26;;;;;;;7.00;3.80;;;;;;;9.98;100.00;98596.50;5076822;28;20492;-68
2024/02/10 09:19:16;;;;;;;8.15;3.90;;;;;;;10.00;100.00;98594.25;5106927;27;20043;-66
2024/02/10 09:22:06;;;;;;;8.35;4.07;;;;;;;10.03;100.00;98599.09;5096503;28;20059;-66
2024/02/10 09:24:54;;;;;;;9.52;4.28;;;;;;;10.03;100.00;98599.88;5077484;28;20048;-65
2024/02/10 09:27:42;;;;;;;7.78;3.90;;;;;;;10.04;100.00;98597.94;5092348;28;20412;-66
2024/02/10 09:30:30;;;;;;;8.10;4.18;;;;;;;10.07;100.00;98602.75;5106837;28;20537;-66
2024/02/10 09:33:24;;;;;;;7.05;3.95;;;;;;;10.07;100.00;98600.03;5111274;28;20465;-65
2024/02/10 09:36:12;;;;;;;8.93;4.05;;;;;;;10.07;100.00;98594.59;5082790;28;20097;-66
2024/02/10 09:39:03;;;;;;;8.23;3.83;;;;;;;10.09;100.00;98597.78;5113212;28;20054;-66
2024/02/10 09:41:56;;;;;;;8.32;3.83;;;;;;;10.13;100.00;98598.75;5083018;28;20539;-66
2024/02/10 09:44:45;;;;;;;8.02;3.90;;;;;;;10.15;100.00;98601.97;5097606;28;20051;-67
2024/02/10 09:47:34;;;;;;;7.65;4.30;;;;;;;10.16;100.00;98598.13;5077769;28;20404;-65
2024/02/10 09:50:23;;;;;;;9.38;4.25;;;;;;;10.16;100.00;98600.84;5073754;28;20121;-66
2024/02/10 09:53:24;;;;;;;8.02;4.15;;;;;;;10.17;100.00;98605.19;5079615;28;20052;-66
2024/02/10 09:56:14;;;;;;;11.15;4.00;;;;;;;10.20;100.00;98601.81;5063361;28;20044;-67
2024/02/10 09:59:03;;;;;;;6.90;4.05;;;;;;;10.22;100.00;98606.91;5090580;28;20156;-65
2024/02/10 10:01:53;;;;;;;8.48;4.03;;;;;;;10.22;100.00;98596.84;5093990;28;20052;-66
2024/02/10 10:04:41;;;;;;;9.65;4.18;;;;;;;10.24;100.00;98605.47;5080370;28;20044;-66
2024/02/10 10:07:32;;;;;;;7.05;3.67;;;;;;;10.26;100.00;98604.38;5110783;28;20058;-66
2024/02/10 10:10:20;;;;;;;7.43;4.13;;;;;;;10.26;100.00;98612.53;5077700;28;20602;-66
2024/02/10 10:13:09;;;;;;;9.52;4.07;;;;;;;10.28;100.00;98615.75;5095490;28;20052;-64
2024/02/10 10:15:57;;;;;;;8.77;4.35;;;;;;;10.30;100.00;98613.53;5067678;28;20044;-65
2024/02/10 10:18:52;;;;;;;6.85;3.90;;;;;;;10.30;100.00;98605.38;5093159;28;20072;-66
2024/02/10 10:21:41;;;;;;;10.13;4.20;;;;;;;10.30;100.00;98603.44;5075504;28;20410;-66
2024/02/10 10:24:29;;;;;;;8.55;4.00;;;;;;;10.32;100.00;98609.38;5115552;28;20052;-65
2024/02/10 10:27:22;;;;;;;8.68;4.03;;;;;;;10.32;100.00;98609.38;5098690;28;20052;-67
2024/02/10 10:30:11;;;;;;;10.13;4.43;;;;;;;10.35;100.00;98613.38;5080807;28;20169;-65
2024/02/10 10:33:05;;;;;;;6.57;4.10;;;;;;;10.34;100.00;98609.03;5099204;28;20047;-67
2024/02/10 10:36:00;;;;;;;8.75;4.15;;;;;;;10.36;100.00;98614.94;5082727;28;20511;-65
2024/02/10 10:38:48;;;;;;;8.98;4.63;;;;;;;10.36;100.00;98613.03;5077527;28;20044;-65
2024/02/10 10:41:38;;;;;;;7.53;4.47;;;;;;;10.38;100.00;98613.50;5062312;28;20118;-66
2024/02/10 10:44:27;;;;;;;9.23;4.35;;;;;;;10.40;100.00;98622.16;5078289;28;20052;-65
2024/02/10 10:47:15;;;;;;;10.90;4.30;;;;;;;10.42;100.00;98619.13;4396038;28;10000728;-65
2024/02/10 10:50:03;;;;;;;8.88;4.68;;;;;;;10.44;100.00;98608.72;5111621;27;20062;-66
2024/02/10 10:52:52;;;;;;;7.28;4.18;;;;;;;10.46;100.00;98601.00;5111355;27;20044;-67
2024/02/10 10:55:43;;;;;;;8.02;4.53;;;;;;;10.48;100.00;98597.97;5076493;28;20047;-66
2024/02/10 10:58:43;;;;;;;9.07;4.80;;;;;;;10.49;100.00;98605.84;5076619;28;20055;-65
2024/02/10 11:01:32;;;;;;;10.32;5.35;;;;;;;10.51;100.00;98606.31;5099924;28;20043;-66
2024/02/10 11:04:21;;;;;;;10.20;4.80;;;;;;;10.53;100.00;98609.50;5100390;28;20150;-66
2024/02/10 11:07:10;;;;;;;9.55;4.95;;;;;;;10.55;100.00;98609.19;5115123;28;20393;-66
2024/02/10 11:10:02;;;;;;;9.27;4.75;;;;;;;10.59;100.00;98605.50;5087047;28;20535;-66
2024/02/10 11:12:57;;;;;;;8.52;4.72;;;;;;;10.61;100.00;98603.25;5114663;28;20043;-65
2024/02/10 11:15:45;;;;;;;12.98;5.63;;;;;;;10.64;100.00;98594.44;5095572;28;20142;-66
2024/02/10 11:18:33;;;;;;;10.48;5.50;;;;;;;10.64;100.00;98594.44;5092749;28;20484;-66
2024/02/10 11:21:25;;;;;;;10.57;5.53;;;;;;;10.66;100.00;98588.66;5097233;28;20083;-65
2024/02/10 11:24:19;;;;;;;11.73;5.32;;;;;;;10.65;100.00;98593.31;5098137;28;20055;-66
2024/02/10 11:27:07;;;;;;;11.68;5.13;;;;;;;10.68;100.00;98585.59;5114537;28;20051;-64
2024/02/10 11:29:58;;;;;;;10.55;5.30;;;;;;;10.70;100.00;98589.59;5080267;28;20036;-65
2024/02/10 11:32:47;;;;;;;12.00;5.25;;;;;;;10.74;100.00;98589.78;5081596;28;20044;-65
2024/02/10 11:35:37;;;;;;;7.82;4.45;;;;;;;10.75;100.00;98583.19;5098355;28;20048;-64
2024/02/10 11:38:25;;;;;;;8.18;4.32;;;;;;;10.77;100.00;98572.78;5111940;28;20522;-64
2024/02/10 11:41:14;;;;;;;7.88;4.38;;;;;;;10.79;100.00;98573.25;5097044;28;20063;-67
2024/02/10 11:44:02;;;;;;;8.30;4.57;;;;;;;10.81;100.00;98568.28;5098733;28;20035;-66
2024/02/10 11:46:50;;;;;;;8.15;4.68;;;;;;;10.83;100.00;98568.75;5097473;28;20071;-65
2024/02/10 11:49:39;;;;;;;9.80;4.30;;;;;;;10.84;100.00;98567.63;5079507;28;20407;-66
2024/02/10 11:52:29;;;;;;;8.38;4.60;;;;;;;10.85;100.00;98564.59;5093020;28;20496;-66
2024/02/10 11:55:18;;;;;;;9.35;5.00;;;;;;;10.87;100.00;98569.69;5093412;27;20181;-67
2024/02/10 11:58:08;;;;;;;13.13;4.47;;;;;;;10.88;100.00;98563.13;5063736;28;20044;-66
2024/02/10 12:00:56;;;;;;;7.72;4.30;;;;;;;10.91;100.00;98561.69;5095822;28;20502;-66
2024/02/10 12:03:44;;;;;;;10.23;4.50;;;;;;;10.94;100.00;98564.53;5099015;28;20055;-67
2024/02/10 12:06:32;;;;;;;10.43;4.30;;;;;;;10.95;100.00;98568.88;5101246;27;20035;-66
2024/02/10 12:09:22;;;;;;;7.70;3.88;;;;;;;10.97;100.00;98566.63;5096309;28;20568;-66
2024/02/10 12:12:13;;;;;;;12.85;5.03;;;;;;;10.98;100.00;98568.22;5084308;28;20043;-68
2024/02/10 12:15:02;;;;;;;10.05;4.30;;;;;;;11.00;100.00;98563.25;5050476;28;20540;-68
2024/02/10 12:17:51;;;;;;;6.32;3.40;;;;;;;11.01;100.00;98553.94;5117087;27;20047;-67
2024/02/10 12:20:39;;;;;;;12.18;4.22;;;;;;;11.00;100.00;98555.06;5057143;28;20039;-68
2024/02/10 12:23:32;;;;;;;6.75;3.75;;;;;;;11.03;100.00;98559.84;5074739;28;20052;-68
2024/02/10 12:26:22;;;;;;;6.40;3.65;;;;;;;11.04;100.00;98555.19;5106786;28;20051;-67
2024/02/10 12:29:11;;;;;;;9.80;3.88;;;;;;;11.05;100.00;98562.28;5090051;27;20491;-68
2024/02/10 12:32:01;;;;;;;9.00;3.88;;;;;;;11.05;100.00;98565.78;5108780;27;20044;-68
2024/02/10 12:34:49;;;;;;;5.57;3.50;;;;;;;11.05;100.00;98557.63;5092870;28;20044;-66
2024/02/10 12:37:38;;;;;;;6.88;3.90;;;;;;;11.06;100.00;98567.41;5078491;28;20075;-66
2024/02/10 12:40:26;;;;;;;9.38;4.18;;;;;;;11.09;100.00;98568.69;5076741;28;20044;-67
2024/02/10 12:43:14;;;;;;;8.75;3.70;;;;;;;11.12;100.00;98572.66;5094120;28;20055;-66
2024/02/10 12:46:02;;;;;;;7.65;3.70;;;;;;;11.13;100.00;98566.09;5050628;28;20036;-66
2024/02/10 12:48:51;;;;;;;8.07;3.78;;;;;;;11.14;100.00;98559.53;5097099;27;20036;-66
2024/02/10 12:51:40;;;;;;;6.95;3.50;;;;;;;11.14;100.00;98564.97;5075088;28;20052;-66
2024/02/10 12:54:29;;;;;;;7.75;4.00;;;;;;;11.16;100.00;98558.06;5079312;28;20131;-67
2024/02/10 12:57:18;;;;;;;8.23;4.30;;;;;;;11.16;100.00;98557.25;5078743;28;20134;-67
2024/02/10 13:00:24;;;;;;;7.53;3.90;;;;;;;11.17;100.00;98564.31;5087378;28;20514;-66
2024/02/10 13:03:13;;;;;;;8.52;4.32;;;;;;;11.18;100.00;98560.44;5099571;28;20130;-67
2024/02/10 13:06:01;;;;;;;8.68;4.50;;;;;;;11.20;100.00;98569.09;5083947;28;20467;-66
2024/02/10 13:08:49;;;;;;;8.52;4.63;;;;;;;11.21;100.00;98565.25;5111197;27;20052;-67